createdAt,value
2022-08-07T00:00:36.125Z,76.79
2022-08-07T00:03:07.129Z,77.09
2022-08-07T00:05:36.170Z,77.58
2022-08-07T00:08:04.827Z,77.49
2022-08-07T00:10:31.876Z,77.46
2022-08-07T00:13:03.197Z,77.78
2022-08-07T00:15:46.797Z,78.36
2022-08-07T00:18:24.500Z,77.97
2022-08-07T00:21:03.448Z,78.25
2022-08-07T00:23:36.821Z,78.52
2022-08-07T00:26:13.182Z,78.46
2022-08-07T00:28:46.196Z,78.44
2022-08-07T00:31:22.183Z,78.71
2022-08-07T00:33:48.778Z,79.26
2022-08-07T00:36:16.911Z,79.73
2022-08-07T00:38:43.681Z,80.65
2022-08-07T00:41:14.766Z,80.84
2022-08-07T00:44:00.445Z,80.70
2022-08-07T00:46:30.044Z,80.84
2022-08-07T00:49:02.158Z,81.15
2022-08-07T00:51:56.730Z,80.51
2022-08-07T00:54:19.636Z,81.53
2022-08-07T00:56:49.929Z,82.94
2022-08-07T00:59:17.784Z,82.99
2022-08-07T01:01:48.401Z,82.43
2022-08-07T01:04:24.538Z,82.43
2022-08-07T01:06:51.588Z,82.87
2022-08-07T01:09:35.623Z,82.87
2022-08-07T01:12:29.005Z,83.65
2022-08-07T01:14:57.130Z,83.33
2022-08-07T01:17:29.960Z,83.78
2022-08-07T01:20:04.858Z,83.34
2022-08-07T01:22:33.155Z,83.14
2022-08-07T01:25:00.771Z,83.28
2022-08-07T01:27:32.274Z,83.05
2022-08-07T01:30:01.125Z,83.55
2022-08-07T01:32:30.111Z,83.76
2022-08-07T01:34:58.140Z,83.69
2022-08-07T01:37:25.744Z,84.18
2022-08-07T01:39:54.751Z,84.45
2022-08-07T01:42:38.373Z,84.83
2022-08-07T01:45:09.777Z,84.28
2022-08-07T01:48:20.504Z,85.08
2022-08-07T01:50:28.797Z,87.54
2022-08-07T01:52:59.080Z,87.25
2022-08-07T01:55:36.379Z,87.38
2022-08-07T01:58:27.203Z,88.54
2022-08-07T02:01:09.962Z,88.42
2022-08-07T02:03:50.491Z,88.65
2022-08-07T02:06:31.679Z,88.52
2022-08-07T02:09:04.313Z,88.56
2022-08-07T02:25:18.358Z,90.57
2022-08-07T02:27:56.681Z,89.71
2022-08-07T02:30:24.344Z,90.79
2022-08-07T02:33:08.893Z,91.56
2022-08-07T02:36:29.684Z,91.63
2022-08-07T02:38:31.579Z,91.25
2022-08-07T02:41:03.878Z,91.47
2022-08-07T02:43:35.203Z,90.35
2022-08-07T02:46:06.400Z,89.41
2022-08-07T02:48:35.440Z,89.30
2022-08-07T02:51:28.852Z,88.26
2022-08-07T02:53:58.304Z,88.44
2022-08-07T02:56:31.443Z,88.18
2022-08-07T02:59:01.968Z,88.20
2022-08-07T03:01:36.462Z,88.98
2022-08-07T03:04:14.002Z,88.91
2022-08-07T03:06:48.284Z,86.84
2022-08-07T03:09:44.625Z,84.91
2022-08-07T03:12:06.616Z,84.31
2022-08-07T03:14:36.317Z,84.57
2022-08-07T03:17:04.865Z,82.87
2022-08-07T03:19:37.045Z,83.59
2022-08-07T03:22:07.061Z,83.96
2022-08-07T03:24:34.769Z,83.88
2022-08-07T03:27:06.159Z,84.02
2022-08-07T03:29:49.393Z,84.02
2022-08-07T03:32:22.816Z,85.32
2022-08-07T03:35:01.190Z,86.19
2022-08-07T03:37:46.032Z,87.40
2022-08-07T03:40:20.278Z,88.10
2022-08-07T03:42:50.088Z,88.77
2022-08-07T03:45:30.426Z,89.59
2022-08-07T03:48:02.225Z,90.30
2022-08-07T03:50:31.314Z,89.76
2022-08-07T03:53:02.746Z,89.71
2022-08-07T03:55:52.991Z,88.91
2022-08-07T03:59:05.609Z,89.15
2022-08-07T04:01:11.111Z,88.94
2022-08-07T04:03:53.304Z,89.22
2022-08-07T04:06:37.577Z,88.89
2022-08-07T04:09:15.753Z,87.85
2022-08-07T04:12:23.990Z,87.05
2022-08-07T04:14:37.312Z,84.86
2022-08-07T04:17:29.374Z,83.87
2022-08-07T04:19:55.631Z,81.18
2022-08-07T04:22:28.841Z,81.53
2022-08-07T04:24:58.834Z,80.32
2022-08-07T04:27:29.004Z,80.82
2022-08-07T04:30:11.861Z,79.18
2022-08-07T04:32:58.188Z,81.64
2022-08-07T04:35:25.780Z,82.12
2022-08-07T04:38:03.939Z,81.03
2022-08-07T04:40:52.143Z,79.66
2022-08-07T04:44:12.271Z,79.11
2022-08-07T04:47:04.742Z,79.57
2022-08-07T04:50:11.346Z,79.65
2022-08-07T04:52:51.100Z,78.73
2022-08-07T04:58:09.900Z,78.73
2022-08-07T04:58:33.763Z,79.62
2022-08-07T05:01:30.209Z,79.09
2022-08-07T05:04:12.510Z,79.54
2022-08-07T05:06:51.231Z,79.08
2022-08-07T05:09:42.948Z,79.74
2022-08-07T05:12:15.592Z,80.04
2022-08-07T05:15:04.434Z,77.45
2022-08-07T05:17:52.045Z,78.42
2022-08-07T05:20:26.836Z,77.50
2022-08-07T05:23:02.092Z,77.83
2022-08-07T05:25:54.533Z,75.53
2022-08-07T05:28:23.126Z,71.93
2022-08-07T05:30:56.844Z,72.56
2022-08-07T05:33:28.381Z,72.30
2022-08-07T05:35:56.700Z,71.23
2022-08-07T05:38:59.634Z,70.41
2022-08-07T05:41:16.780Z,70.65
2022-08-07T05:44:12.736Z,68.99
2022-08-07T05:46:38.662Z,68.73
2022-08-07T05:49:11.680Z,68.37
2022-08-07T05:51:41.213Z,67.42
2022-08-07T05:54:31.537Z,66.70
2022-08-07T05:56:58.853Z,66.01
2022-08-07T05:59:28.064Z,67.92
2022-08-07T06:02:00.934Z,66.22
2022-08-07T06:04:30.253Z,64.33
2022-08-07T06:07:03.776Z,64.76
2022-08-07T06:10:03.184Z,65.80
2022-08-07T06:12:27.887Z,66.02
2022-08-07T06:15:05.371Z,65.57
2022-08-07T06:17:37.825Z,64.88
2022-08-07T06:20:12.393Z,65.40
2022-08-07T06:23:02.347Z,64.42
2022-08-07T06:25:54.492Z,63.95
2022-08-07T06:28:28.058Z,64.14
2022-08-07T06:30:56.449Z,63.44
2022-08-07T06:33:26.063Z,63.16
2022-08-07T06:36:13.380Z,61.92
2022-08-07T06:38:59.143Z,61.79
2022-08-07T06:41:58.829Z,60.69
2022-08-07T06:44:39.789Z,60.66
2022-08-07T06:47:10.188Z,60.39
2022-08-07T06:49:51.971Z,59.88
2022-08-07T06:52:32.023Z,59.15
2022-08-07T06:55:34.546Z,59.99
2022-08-07T06:58:00.013Z,57.66
2022-08-07T07:00:36.723Z,57.23
2022-08-07T07:03:10.736Z,58.18
2022-08-07T07:06:05.214Z,57.51
2022-08-07T07:08:31.050Z,57.45
2022-08-07T07:11:00.999Z,58.62
2022-08-07T07:13:41.666Z,56.79
2022-08-07T07:16:30.440Z,56.29
2022-08-07T07:19:37.316Z,56.71
2022-08-07T07:22:11.882Z,55.63
2022-08-07T07:24:42.930Z,54.77
2022-08-07T07:27:19.381Z,55.71
2022-08-07T07:30:08.933Z,55.25
2022-08-07T07:32:40.282Z,52.32
2022-08-07T07:35:10.936Z,51.55
2022-08-07T07:37:47.451Z,50.35
2022-08-07T07:40:19.612Z,51.28
2022-08-07T07:42:53.841Z,51.02
2022-08-07T07:46:37.036Z,50.59
2022-08-07T07:48:35.428Z,49.56
2022-08-07T07:51:07.840Z,50.39
2022-08-07T07:53:51.873Z,49.26
2022-08-07T07:56:30.024Z,49.46
2022-08-07T07:59:01.534Z,48.81
2022-08-07T08:02:01.888Z,48.24
2022-08-07T08:04:19.548Z,47.52
2022-08-07T08:06:53.335Z,47.88
2022-08-07T08:09:24.152Z,47.10
2022-08-07T08:12:02.336Z,47.62
2022-08-07T08:14:36.658Z,46.59
2022-08-07T08:17:32.284Z,46.42
2022-08-07T08:20:18.311Z,45.72
2022-08-07T08:23:08.493Z,45.51
2022-08-07T08:25:58.031Z,46.59
2022-08-07T08:28:38.540Z,44.75
2022-08-07T08:31:15.939Z,45.98
2022-08-07T08:33:49.453Z,44.94
2022-08-07T08:36:30.128Z,45.03
2022-08-07T08:38:59.881Z,43.95
2022-08-07T08:41:57.469Z,44.15
2022-08-07T08:45:13.041Z,44.01
2022-08-07T08:48:01.695Z,43.17
2022-08-07T08:50:39.600Z,42.49
2022-08-07T08:53:38.754Z,42.70
2022-08-07T08:56:11.460Z,41.94
2022-08-07T08:59:06.309Z,40.93
2022-08-07T09:02:00.328Z,41.03
2022-08-07T09:04:41.560Z,41.10
2022-08-07T09:07:34.195Z,40.20
2022-08-07T09:10:25.352Z,40.38
2022-08-07T09:13:14.726Z,39.03
2022-08-07T09:16:20.309Z,39.21
2022-08-07T09:18:58.523Z,39.20
2022-08-07T09:21:58.202Z,38.46
2022-08-07T09:24:55.975Z,38.61
2022-08-07T09:28:00.001Z,37.93
2022-08-07T09:30:36.833Z,36.41
2022-08-07T09:33:41.190Z,34.53
2022-08-07T09:36:37.196Z,32.16
2022-08-07T09:39:53.035Z,31.76
2022-08-07T09:42:23.078Z,30.88
2022-08-07T09:47:24.152Z,31.12
2022-08-07T09:48:11.774Z,30.69
2022-08-07T09:50:56.028Z,29.74
2022-08-07T09:53:25.589Z,29.02
2022-08-07T09:56:37.713Z,29.35
2022-08-07T09:59:21.638Z,28.32
2022-08-07T10:02:05.147Z,28.36
2022-08-07T10:04:58.565Z,28.85
2022-08-07T10:07:53.461Z,28.65
2022-08-07T10:11:59.418Z,28.25
2022-08-07T10:14:11.142Z,28.76
2022-08-07T10:16:59.701Z,27.51
2022-08-07T10:19:43.487Z,26.97
2022-08-07T10:22:38.264Z,27.86
2022-08-07T10:25:22.858Z,26.58
2022-08-07T10:28:14.307Z,27.37
2022-08-07T10:31:18.699Z,27.22
2022-08-07T10:34:05.867Z,27.89
2022-08-07T10:36:58.894Z,27.05
2022-08-07T10:40:02.631Z,27.54
2022-08-07T10:42:37.095Z,27.00
2022-08-07T10:45:19.418Z,27.21
2022-08-07T10:48:13.413Z,26.61
2022-08-07T10:50:50.336Z,27.57
2022-08-07T10:53:44.526Z,27.36
2022-08-07T10:56:33.584Z,27.30
2022-08-07T10:59:21.291Z,27.71
2022-08-07T11:02:05.249Z,27.36
2022-08-07T11:05:24.433Z,27.01
2022-08-07T11:08:29.227Z,27.01
2022-08-07T11:11:06.060Z,27.39
2022-08-07T11:14:44.866Z,26.85
2022-08-07T11:16:39.295Z,27.45
2022-08-07T11:19:14.040Z,26.59
2022-08-07T11:21:58.786Z,26.93
2022-08-07T11:24:46.283Z,26.74
2022-08-07T11:28:02.405Z,26.76
2022-08-07T11:30:41.390Z,25.69
2022-08-07T11:33:18.895Z,26.29
2022-08-07T11:36:25.185Z,26.11
2022-08-07T11:39:06.981Z,27.20
2022-08-07T11:42:00.214Z,26.14
2022-08-07T11:44:52.706Z,26.17
2022-08-07T11:47:53.571Z,26.90
2022-08-07T11:50:44.467Z,27.10
2022-08-07T11:53:43.207Z,26.96
2022-08-07T11:56:56.168Z,27.32
2022-08-07T12:00:11.063Z,27.15
2022-08-07T12:02:52.561Z,26.77
2022-08-07T12:05:47.420Z,27.27
2022-08-07T12:08:26.110Z,27.60
2022-08-07T12:11:21.451Z,27.11
2022-08-07T12:14:11.833Z,27.88
2022-08-07T12:16:46.531Z,27.37
2022-08-07T12:19:22.137Z,27.90
2022-08-07T12:22:38.590Z,28.04
2022-08-07T12:26:06.042Z,27.94
2022-08-07T12:28:37.637Z,27.67
2022-08-07T12:31:23.603Z,27.81
2022-08-07T12:34:00.607Z,27.30
2022-08-07T12:36:33.024Z,27.87
2022-08-07T12:39:09.283Z,28.08
2022-08-07T12:41:53.594Z,28.13
2022-08-07T12:44:21.576Z,27.58
2022-08-07T12:47:01.354Z,28.34
2022-08-07T12:49:51.623Z,27.84
2022-08-07T12:52:58.604Z,28.29
2022-08-07T12:55:41.408Z,27.91
2022-08-07T12:58:28.031Z,27.75
2022-08-07T13:01:14.617Z,27.64
2022-08-07T13:04:04.821Z,27.97
2022-08-07T13:06:36.414Z,27.79
2022-08-07T13:10:28.454Z,28.13
2022-08-07T13:12:56.068Z,27.63
2022-08-07T13:15:47.684Z,28.10
2022-08-07T13:18:31.221Z,28.26
2022-08-07T13:21:13.063Z,27.79
2022-08-07T13:24:00.738Z,27.81
2022-08-07T13:26:46.224Z,27.87
2022-08-07T13:29:23.543Z,27.74
2022-08-07T13:32:23.536Z,27.23
2022-08-07T13:34:55.258Z,28.04
2022-08-07T13:37:32.004Z,27.86
2022-08-07T13:40:36.371Z,27.34
2022-08-07T13:43:11.730Z,27.86
2022-08-07T13:46:11.577Z,27.90
2022-08-07T13:48:34.664Z,27.88
2022-08-07T13:51:27.050Z,27.60
2022-08-07T13:54:16.545Z,28.80
2022-08-07T13:56:59.462Z,28.60
2022-08-07T13:59:31.262Z,29.54
2022-08-07T14:02:15.035Z,28.17
2022-08-07T14:04:54.978Z,28.61
2022-08-07T14:07:30.595Z,28.66
2022-08-07T14:22:00.529Z,28.71
2022-08-07T14:24:09.248Z,29.07
2022-08-07T14:26:51.207Z,29.43
2022-08-07T14:30:05.562Z,28.79
2022-08-07T14:32:24.899Z,29.92
2022-08-07T14:34:53.991Z,28.81
2022-08-07T14:37:35.226Z,29.30
2022-08-07T14:40:17.944Z,28.73
2022-08-07T14:43:01.471Z,28.36
2022-08-07T14:45:49.982Z,28.31
2022-08-07T14:48:20.792Z,27.76
2022-08-07T14:50:51.375Z,28.08
2022-08-07T14:56:13.133Z,27.81
2022-08-07T14:58:54.917Z,27.28
2022-08-07T15:01:42.751Z,25.95
2022-08-07T15:04:18.172Z,26.37
2022-08-07T15:06:47.589Z,26.92
2022-08-07T15:09:59.949Z,26.13
2022-08-07T15:12:09.788Z,25.91
2022-08-07T15:14:59.288Z,25.43
2022-08-07T15:17:54.557Z,25.77
2022-08-07T15:20:32.692Z,25.36
2022-08-07T15:23:20.615Z,25.46
2022-08-07T15:25:53.441Z,24.67
2022-08-07T15:32:01.161Z,24.02
2022-08-07T15:34:05.844Z,23.17
2022-08-07T15:37:04.087Z,22.81
2022-08-07T15:39:56.568Z,23.32
2022-08-07T15:42:43.839Z,23.83
2022-08-07T15:45:58.296Z,23.03
2022-08-07T15:48:35.485Z,22.79
2022-08-07T15:51:11.996Z,22.41
2022-08-07T15:53:52.823Z,21.78
2022-08-07T15:56:24.590Z,21.64
2022-08-07T15:58:57.761Z,22.74
2022-08-07T16:01:39.435Z,22.23
2022-08-07T16:04:15.583Z,22.57
2022-08-07T16:06:52.461Z,22.99
2022-08-07T16:09:41.092Z,22.50
2022-08-07T16:13:01.213Z,22.24
2022-08-07T16:15:57.366Z,21.70
2022-08-07T16:18:49.679Z,22.00
2022-08-07T16:22:05.820Z,22.75
2022-08-07T16:24:55.043Z,23.30
2022-08-07T16:27:40.599Z,22.98
2022-08-07T16:30:31.690Z,23.63
2022-08-07T16:34:03.016Z,23.14
2022-08-07T16:36:23.038Z,23.92
2022-08-07T16:39:40.372Z,23.76
2022-08-07T16:42:23.507Z,24.13
2022-08-07T16:46:47.546Z,24.66
2022-08-07T16:49:04.285Z,24.26
2022-08-07T16:52:01.295Z,24.37
2022-08-07T16:54:54.221Z,24.62
2022-08-07T16:58:03.510Z,24.36
2022-08-07T17:00:29.648Z,24.28
2022-08-07T17:03:57.890Z,24.57
2022-08-07T17:06:41.084Z,24.57
2022-08-07T17:10:07.049Z,25.29
2022-08-07T17:12:35.088Z,26.08
2022-08-07T17:15:15.580Z,26.58
2022-08-07T17:17:46.512Z,25.99
2022-08-07T17:20:32.888Z,26.79
2022-08-07T17:23:16.921Z,27.35
2022-08-07T17:25:59.372Z,26.33
2022-08-07T17:28:56.495Z,26.83
2022-08-07T17:31:44.183Z,26.96
2022-08-07T17:35:02.717Z,28.20
2022-08-07T17:38:06.260Z,28.12
2022-08-07T17:40:50.683Z,28.71
2022-08-07T17:44:01.511Z,28.73
2022-08-07T17:46:37.857Z,28.99
2022-08-07T17:49:39.356Z,29.32
2022-08-07T17:52:17.900Z,30.14
2022-08-07T17:54:53.689Z,30.31
2022-08-07T17:57:59.207Z,30.69
2022-08-07T18:00:34.691Z,30.59
2022-08-07T18:04:04.461Z,30.54
2022-08-07T18:06:42.968Z,30.77
2022-08-07T18:09:18.622Z,30.67
2022-08-07T18:12:28.622Z,31.59
2022-08-07T18:15:08.462Z,31.50
2022-08-07T18:18:45.045Z,31.93
2022-08-07T18:21:42.238Z,32.11
2022-08-07T18:24:41.108Z,32.36
2022-08-07T18:27:25.352Z,32.05
2022-08-07T18:30:31.366Z,31.97
2022-08-07T18:33:29.006Z,31.99
2022-08-07T18:36:14.065Z,33.32
2022-08-07T18:38:57.069Z,34.43
2022-08-07T18:41:53.124Z,34.53
2022-08-07T18:44:31.665Z,35.09
2022-08-07T18:47:10.925Z,34.78
2022-08-07T18:50:39.139Z,35.78
2022-08-07T18:53:39.567Z,34.61
2022-08-07T18:56:34.208Z,36.22
2022-08-07T18:59:47.669Z,36.27
2022-08-07T19:02:34.015Z,37.53
2022-08-07T19:06:02.596Z,37.59
2022-08-07T19:08:52.208Z,37.09
2022-08-07T19:11:35.633Z,36.82
2022-08-07T19:14:17.026Z,38.46
2022-08-07T19:17:05.783Z,38.82
2022-08-07T19:19:48.828Z,38.94
2022-08-07T19:22:30.329Z,38.75
2022-08-07T19:25:06.415Z,40.11
2022-08-07T19:28:57.423Z,40.29
2022-08-07T19:31:05.416Z,40.52
2022-08-07T19:33:33.596Z,41.34
2022-08-07T19:36:08.657Z,42.22
2022-08-07T19:38:52.492Z,42.62
2022-08-07T19:41:44.239Z,42.35
2022-08-07T19:44:21.141Z,41.52
2022-08-07T19:46:55.633Z,41.94
2022-08-07T19:49:58.578Z,43.21
2022-08-07T19:52:28.538Z,42.96
2022-08-07T19:54:57.371Z,43.07
2022-08-07T19:58:02.926Z,43.77
2022-08-07T20:00:29.301Z,43.10
2022-08-07T20:03:01.791Z,43.79
2022-08-07T20:06:00.102Z,43.88
2022-08-07T20:08:27.328Z,44.14
2022-08-07T20:11:01.728Z,43.82
2022-08-07T20:13:41.939Z,43.60
2022-08-07T20:16:15.854Z,44.66
2022-08-07T20:19:00.116Z,44.73
2022-08-07T20:21:41.759Z,45.59
2022-08-07T20:24:24.071Z,45.53
2022-08-07T20:26:58.400Z,46.35
2022-08-07T20:29:49.574Z,46.75
2022-08-07T20:32:26.200Z,45.96
2022-08-07T20:35:10.880Z,47.40
2022-08-07T20:37:55.536Z,47.72
2022-08-07T20:40:33.002Z,48.95
2022-08-07T20:43:02.381Z,49.42
2022-08-07T20:45:33.418Z,50.44
2022-08-07T20:48:29.010Z,50.43
2022-08-07T20:51:00.098Z,51.58
2022-08-07T20:54:04.171Z,52.05
2022-08-07T20:56:16.497Z,51.88
2022-08-07T20:58:50.268Z,52.08
2022-08-07T21:01:21.115Z,52.18
2022-08-07T21:04:18.694Z,53.08
2022-08-07T21:06:46.554Z,52.70
2022-08-07T21:09:24.304Z,54.60
2022-08-07T21:11:57.019Z,55.00
2022-08-07T21:14:34.254Z,55.48
2022-08-07T21:18:01.110Z,53.47
2022-08-07T21:20:04.482Z,53.78
2022-08-07T21:22:38.375Z,54.34
2022-08-07T21:25:20.084Z,54.38
2022-08-07T21:28:10.235Z,55.33
2022-08-07T21:30:56.719Z,55.73
2022-08-07T21:33:41.766Z,56.48
2022-08-07T21:36:11.899Z,57.81
2022-08-07T21:39:05.546Z,57.32
2022-08-07T21:42:02.700Z,58.55
2022-08-07T21:44:53.895Z,57.26
2022-08-07T21:47:50.127Z,56.04
2022-08-07T21:50:25.134Z,56.71
2022-08-07T21:53:09.891Z,56.85
2022-08-07T21:55:42.472Z,57.16
2022-08-07T21:58:12.275Z,57.56
2022-08-07T22:01:02.942Z,57.44
2022-08-07T22:04:03.645Z,55.26
2022-08-07T22:06:45.015Z,55.28
2022-08-07T22:09:16.338Z,54.71
2022-08-07T22:12:04.784Z,55.17
2022-08-07T22:15:03.187Z,57.03
2022-08-07T22:18:14.325Z,56.61
2022-08-07T22:20:54.480Z,56.92
2022-08-07T22:23:28.279Z,56.81
2022-08-07T22:26:23.015Z,57.09
2022-08-07T22:29:01.796Z,57.59
2022-08-07T22:31:59.744Z,58.40
2022-08-07T22:34:35.652Z,58.14
2022-08-07T22:38:04.225Z,57.91
2022-08-07T22:40:29.685Z,58.21
2022-08-07T22:43:03.188Z,58.77
2022-08-07T22:46:21.938Z,58.77
2022-08-07T22:49:07.808Z,58.67
2022-08-07T22:51:52.023Z,58.56
2022-08-07T22:54:40.433Z,59.45
2022-08-07T22:57:50.547Z,59.36
2022-08-07T23:00:57.682Z,59.43
2022-08-07T23:03:58.942Z,60.11
2022-08-07T23:06:50.001Z,60.50
2022-08-07T23:10:06.535Z,60.96
2022-08-07T23:13:06.632Z,61.17
2022-08-07T23:16:06.157Z,61.42
2022-08-07T23:19:48.114Z,61.81
2022-08-07T23:22:36.468Z,62.82
2022-08-07T23:25:18.931Z,62.95
2022-08-07T23:28:22.618Z,63.31
2022-08-07T23:31:42.868Z,63.11
2022-08-07T23:34:37.253Z,63.66
2022-08-07T23:37:22.554Z,64.17
2022-08-07T23:40:26.044Z,64.41
2022-08-07T23:43:16.751Z,64.68
2022-08-07T23:46:28.708Z,64.66
2022-08-07T23:49:26.224Z,65.42
2022-08-07T23:53:11.815Z,66.31
2022-08-07T23:55:53.697Z,66.45
2022-08-07T23:59:10.419Z,66.95
